createdAt,value
2017-07-17T00:00:32.868Z,19.05
2017-07-17T00:01:34.135Z,19.11
2017-07-17T00:02:35.366Z,18.92
2017-07-17T00:03:36.708Z,18.99
2017-07-17T00:04:37.978Z,19.01
2017-07-17T00:05:39.223Z,18.99
2017-07-17T00:06:40.484Z,18.92
2017-07-17T00:07:41.754Z,18.94
2017-07-17T00:08:42.989Z,18.95
2017-07-17T00:09:44.317Z,18.95
2017-07-17T00:10:45.585Z,18.99
2017-07-17T00:11:46.859Z,19.01
2017-07-17T00:12:48.085Z,18.92
2017-07-17T00:13:49.333Z,18.92
2017-07-17T00:14:50.625Z,19.02
2017-07-17T00:15:51.876Z,18.99
2017-07-17T00:16:53.110Z,19.02
2017-07-17T00:17:54.369Z,18.99
2017-07-17T00:18:55.625Z,19.05
2017-07-17T00:19:56.886Z,18.98
2017-07-17T00:20:58.120Z,19.02
2017-07-17T00:21:59.365Z,18.94
2017-07-17T00:23:00.683Z,18.94
2017-07-17T00:24:01.986Z,19.02
2017-07-17T00:25:03.229Z,19.01
2017-07-17T00:26:04.474Z,18.94
2017-07-17T00:27:05.729Z,18.91
2017-07-17T00:28:06.980Z,18.95
2017-07-17T00:29:08.247Z,18.95
2017-07-17T00:30:09.520Z,18.94
2017-07-17T00:31:10.765Z,19.01
2017-07-17T00:32:12.039Z,18.92
2017-07-17T00:33:13.355Z,18.95
2017-07-17T00:34:14.538Z,18.91
2017-07-17T00:35:15.789Z,18.95
2017-07-17T00:36:17.059Z,18.92
2017-07-17T00:37:18.450Z,19.05
2017-07-17T00:38:19.736Z,18.98
2017-07-17T00:39:20.971Z,18.9
2017-07-17T00:40:22.332Z,19.01
2017-07-17T00:41:23.580Z,18.99
2017-07-17T00:42:24.838Z,18.95
2017-07-17T00:43:26.069Z,18.97
2017-07-17T00:44:27.317Z,18.99
2017-07-17T00:45:28.578Z,18.99
2017-07-17T00:46:29.820Z,18.9
2017-07-17T00:47:31.097Z,18.94
2017-07-17T00:48:32.352Z,18.8
2017-07-17T00:49:33.590Z,18.92
2017-07-17T00:50:34.828Z,18.84
2017-07-17T00:51:36.080Z,18.77
2017-07-17T00:52:37.353Z,18.87
2017-07-17T00:53:38.594Z,18.74
2017-07-17T00:54:39.949Z,18.72
2017-07-17T00:55:41.194Z,18.79
2017-07-17T00:56:42.479Z,18.73
2017-07-17T00:57:43.710Z,18.77
2017-07-17T00:58:44.961Z,18.68
2017-07-17T00:59:46.282Z,18.64
2017-07-17T01:00:47.529Z,18.77
2017-07-17T01:01:48.803Z,18.65
2017-07-17T01:02:50.047Z,18.73
2017-07-17T01:03:51.300Z,18.68
2017-07-17T01:04:52.637Z,18.67
2017-07-17T01:05:53.903Z,18.64
2017-07-17T01:06:55.136Z,18.61
2017-07-17T01:07:56.383Z,18.61
2017-07-17T01:08:57.655Z,18.68
2017-07-17T01:09:58.906Z,18.67
2017-07-17T01:11:00.141Z,18.64
2017-07-17T01:12:01.379Z,18.67
2017-07-17T01:13:02.637Z,18.64
2017-07-17T01:14:03.888Z,18.61
2017-07-17T01:15:05.137Z,18.58
2017-07-17T01:16:06.377Z,18.62
2017-07-17T01:17:07.620Z,18.67
2017-07-17T01:18:08.968Z,18.58
2017-07-17T01:19:10.215Z,18.64
2017-07-17T01:20:11.499Z,18.59
2017-07-17T01:21:12.737Z,18.67
2017-07-17T01:22:14.020Z,18.64
2017-07-17T01:23:15.277Z,18.64
2017-07-17T01:24:16.528Z,18.64
2017-07-17T01:25:17.754Z,18.65
2017-07-17T01:26:19.045Z,18.67
2017-07-17T01:27:20.344Z,18.64
2017-07-17T01:28:21.660Z,18.64
2017-07-17T01:29:22.894Z,18.67
2017-07-17T01:30:24.186Z,18.62
2017-07-17T01:31:25.415Z,18.61
2017-07-17T01:32:26.739Z,18.59
2017-07-17T01:33:27.992Z,18.59
2017-07-17T01:34:29.246Z,18.55
2017-07-17T01:35:30.521Z,18.57
2017-07-17T01:36:31.776Z,18.64
2017-07-17T01:37:33.005Z,18.64
2017-07-17T01:38:34.362Z,18.64
2017-07-17T01:39:35.601Z,18.61
2017-07-17T01:40:36.850Z,18.67
2017-07-17T01:41:38.112Z,18.67
2017-07-17T01:42:39.348Z,18.61
2017-07-17T01:43:40.621Z,18.64
2017-07-17T01:44:41.885Z,18.74
2017-07-17T01:45:43.133Z,18.74
2017-07-17T01:46:44.364Z,18.79
2017-07-17T01:47:45.623Z,18.65
2017-07-17T01:48:46.904Z,18.65
2017-07-17T01:49:48.173Z,18.72
2017-07-17T01:50:49.395Z,18.7
2017-07-17T01:51:50.746Z,18.7
2017-07-17T01:52:52.006Z,18.72
2017-07-17T01:53:53.244Z,18.61
2017-07-17T01:54:54.545Z,18.62
2017-07-17T01:55:55.786Z,18.73
2017-07-17T01:56:57.087Z,18.72
2017-07-17T01:57:58.358Z,18.68
2017-07-17T01:58:59.705Z,18.74
2017-07-17T02:00:00.835Z,18.65
2017-07-17T02:01:02.081Z,18.73
2017-07-17T02:02:03.349Z,18.74
2017-07-17T02:03:04.618Z,18.62
2017-07-17T02:04:05.854Z,18.7
2017-07-17T02:05:07.161Z,18.7
2017-07-17T02:06:08.419Z,18.7
2017-07-17T02:07:09.662Z,18.68
2017-07-17T02:08:10.992Z,18.62
2017-07-17T02:09:12.254Z,18.68
2017-07-17T02:10:13.501Z,18.68
2017-07-17T02:11:14.881Z,18.64
2017-07-17T02:12:16.126Z,18.68
2017-07-17T02:13:17.370Z,18.64
2017-07-17T02:14:18.617Z,18.62
2017-07-17T02:15:19.921Z,18.59
2017-07-17T02:16:21.219Z,18.59
2017-07-17T02:17:22.467Z,18.61
2017-07-17T02:18:23.765Z,18.58
2017-07-17T02:19:25.009Z,18.61
2017-07-17T02:20:26.290Z,18.68
2017-07-17T02:21:27.559Z,18.65
2017-07-17T02:22:28.806Z,18.67
2017-07-17T02:23:30.067Z,18.64
2017-07-17T02:24:31.321Z,18.57
2017-07-17T02:25:32.598Z,18.55
2017-07-17T02:26:33.841Z,18.52
2017-07-17T02:27:35.093Z,18.59
2017-07-17T02:28:36.339Z,18.46
2017-07-17T02:29:37.591Z,18.58
2017-07-17T02:30:38.834Z,18.54
2017-07-17T02:31:40.071Z,18.57
2017-07-17T02:32:41.339Z,18.55
2017-07-17T02:33:42.588Z,18.52
2017-07-17T02:34:43.888Z,18.47
2017-07-17T02:35:45.248Z,18.54
2017-07-17T02:36:46.490Z,18.61
2017-07-17T02:37:47.739Z,18.59
2017-07-17T02:38:49.039Z,18.58
2017-07-17T02:39:50.295Z,18.57
2017-07-17T02:40:51.541Z,18.58
2017-07-17T02:41:52.833Z,18.57
2017-07-17T02:42:54.125Z,18.55
2017-07-17T02:43:55.318Z,18.61
2017-07-17T02:44:56.570Z,18.59
2017-07-17T02:45:57.820Z,18.44
2017-07-17T02:46:59.085Z,18.46
2017-07-17T02:48:00.332Z,18.37
2017-07-17T02:49:01.577Z,18.43
2017-07-17T02:50:02.825Z,18.4
2017-07-17T02:51:04.077Z,18.34
2017-07-17T02:52:05.328Z,18.39
2017-07-17T02:53:06.595Z,18.4
2017-07-17T02:54:07.882Z,18.37
2017-07-17T02:55:09.099Z,18.33
2017-07-17T02:56:10.361Z,18.29
2017-07-17T02:57:11.612Z,18.28
2017-07-17T02:58:12.876Z,18.31
2017-07-17T02:59:14.166Z,18.22
2017-07-17T03:00:15.470Z,18.27
2017-07-17T03:01:16.715Z,18.28
2017-07-17T03:02:17.962Z,18.34
2017-07-17T03:03:19.211Z,18.33
2017-07-17T03:04:20.543Z,18.27
2017-07-17T03:05:21.791Z,18.21
2017-07-17T03:06:23.069Z,18.15
2017-07-17T03:07:24.316Z,18.17
2017-07-17T03:08:25.595Z,18.21
2017-07-17T03:09:26.853Z,18.12
2017-07-17T03:10:28.102Z,18.07
2017-07-17T03:11:29.368Z,18.06
2017-07-17T03:12:30.617Z,18.04
2017-07-17T03:13:31.883Z,18.12
2017-07-17T03:14:33.191Z,18.03
2017-07-17T03:15:34.412Z,18.04
2017-07-17T03:16:35.667Z,17.99
2017-07-17T03:17:36.968Z,17.97
2017-07-17T03:18:38.310Z,17.88
2017-07-17T03:19:39.559Z,17.89
2017-07-17T03:20:40.815Z,17.95
2017-07-17T03:21:42.089Z,17.84
2017-07-17T03:22:43.321Z,17.81
2017-07-17T03:23:44.662Z,17.87
2017-07-17T03:24:45.981Z,17.76
2017-07-17T03:25:47.242Z,17.84
2017-07-17T03:26:48.480Z,17.76
2017-07-17T03:27:49.728Z,17.78
2017-07-17T03:28:50.975Z,17.73
2017-07-17T03:29:52.328Z,17.73
2017-07-17T03:30:53.609Z,17.73
2017-07-17T03:31:54.863Z,17.69
2017-07-17T03:32:56.103Z,17.69
2017-07-17T03:33:57.351Z,17.74
2017-07-17T03:34:58.613Z,17.74
2017-07-17T03:35:59.877Z,17.62
2017-07-17T03:37:01.101Z,17.7
2017-07-17T03:38:02.346Z,17.62
2017-07-17T03:39:03.587Z,17.66
2017-07-17T03:40:04.906Z,17.74
2017-07-17T03:41:06.132Z,17.67
2017-07-17T03:42:07.424Z,17.63
2017-07-17T03:43:08.657Z,17.7
2017-07-17T03:44:09.915Z,17.7
2017-07-17T03:45:11.171Z,17.63
2017-07-17T03:46:12.388Z,17.63
2017-07-17T03:47:13.629Z,17.63
2017-07-17T03:48:14.874Z,17.64
2017-07-17T03:49:16.201Z,17.67
2017-07-17T03:50:17.516Z,17.67
2017-07-17T03:51:18.759Z,17.63
2017-07-17T03:52:20.016Z,17.63
2017-07-17T03:53:21.266Z,17.64
2017-07-17T03:54:22.546Z,17.63
2017-07-17T03:55:23.813Z,17.62
2017-07-17T03:56:25.064Z,17.54
2017-07-17T03:57:26.343Z,17.63
2017-07-17T03:58:27.594Z,17.54
2017-07-17T03:59:28.829Z,17.64
2017-07-17T04:00:30.100Z,17.51
2017-07-17T04:01:31.350Z,17.59
2017-07-17T04:02:32.590Z,17.54
2017-07-17T04:03:33.838Z,17.55
2017-07-17T04:04:35.114Z,17.51
2017-07-17T04:05:36.367Z,17.51
2017-07-17T04:06:37.592Z,17.57
2017-07-17T04:07:38.863Z,17.48
2017-07-17T04:08:40.142Z,17.54
2017-07-17T04:09:41.365Z,17.59
2017-07-17T04:10:42.612Z,17.46
2017-07-17T04:11:43.856Z,17.55
2017-07-17T04:12:45.111Z,17.46
2017-07-17T04:13:46.380Z,17.51
2017-07-17T04:14:47.635Z,17.51
2017-07-17T04:15:48.880Z,17.48
2017-07-17T04:16:50.135Z,17.5
2017-07-17T04:17:51.389Z,17.54
2017-07-17T04:18:52.630Z,17.46
2017-07-17T04:19:53.881Z,17.48
2017-07-17T04:20:55.306Z,17.47
2017-07-17T04:21:56.568Z,17.46
2017-07-17T04:22:57.817Z,17.48
2017-07-17T04:23:59.066Z,17.5
2017-07-17T04:25:00.315Z,17.54
2017-07-17T04:26:01.584Z,17.46
2017-07-17T04:27:02.828Z,17.5
2017-07-17T04:28:04.108Z,17.48
2017-07-17T04:29:05.351Z,17.57
2017-07-17T04:30:06.590Z,17.55
2017-07-17T04:31:07.831Z,17.55
2017-07-17T04:32:09.139Z,17.64
2017-07-17T04:33:10.487Z,17.62
2017-07-17T04:34:11.762Z,17.59
2017-07-17T04:35:12.987Z,17.59
2017-07-17T04:36:14.245Z,17.64
2017-07-17T04:37:15.487Z,17.62
2017-07-17T04:38:16.756Z,17.67
2017-07-17T04:39:18.022Z,17.69
2017-07-17T04:40:19.259Z,17.7
2017-07-17T04:41:20.666Z,17.81
2017-07-17T04:42:21.970Z,17.76
2017-07-17T04:43:23.213Z,17.74
2017-07-17T04:44:24.501Z,17.74
2017-07-17T04:45:25.726Z,17.81
2017-07-17T04:46:27.004Z,17.85
2017-07-17T04:47:28.295Z,17.82
2017-07-17T04:48:29.556Z,17.85
2017-07-17T04:49:30.922Z,17.87
2017-07-17T04:50:32.172Z,17.82
2017-07-17T04:51:33.432Z,17.82
2017-07-17T04:52:34.660Z,17.87
2017-07-17T04:53:35.975Z,17.87
2017-07-17T04:54:37.234Z,17.73
2017-07-17T04:55:38.461Z,17.88
2017-07-17T04:56:39.708Z,17.78
2017-07-17T04:57:40.976Z,17.81
2017-07-17T04:58:42.235Z,17.79
2017-07-17T04:59:43.469Z,17.94
2017-07-17T05:00:44.738Z,17.91
2017-07-17T05:01:45.983Z,17.99
2017-07-17T05:02:47.232Z,18.06
2017-07-17T05:03:48.485Z,18.21
2017-07-17T05:04:49.729Z,18.33
2017-07-17T05:05:51.091Z,18.44
2017-07-17T05:06:52.329Z,18.68
2017-07-17T05:07:53.580Z,18.82
2017-07-17T05:08:54.815Z,19.11
2017-07-17T05:09:56.122Z,19.25
2017-07-17T05:10:57.525Z,19.5
2017-07-17T05:11:58.795Z,19.51
2017-07-17T05:13:00.022Z,19.55
2017-07-17T05:14:01.302Z,19.51
2017-07-17T05:15:02.543Z,19.66
2017-07-17T05:16:03.799Z,19.61
2017-07-17T05:17:05.027Z,19.5
2017-07-17T05:18:06.384Z,19.6
2017-07-17T05:19:07.689Z,19.6
2017-07-17T05:20:08.838Z,19.55
2017-07-17T05:21:10.087Z,19.58
2017-07-17T05:22:11.432Z,19.4
2017-07-17T05:23:12.704Z,19.4
2017-07-17T05:24:13.995Z,19.36
2017-07-17T05:25:15.241Z,19.39
2017-07-17T05:26:16.509Z,19.35
2017-07-17T05:27:17.739Z,19.29
2017-07-17T05:28:18.988Z,19.29
2017-07-17T05:29:20.237Z,19.29
2017-07-17T05:30:22.123Z,19.32
2017-07-17T05:31:23.357Z,19.29
2017-07-17T05:32:24.618Z,19.23
2017-07-17T05:33:25.873Z,19.14
2017-07-17T05:34:27.142Z,19.06
2017-07-17T05:35:28.383Z,19.02
2017-07-17T05:36:29.662Z,19.1
2017-07-17T05:37:30.919Z,19.13
2017-07-17T05:38:32.169Z,19.2
2017-07-17T05:39:33.428Z,19.31
2017-07-17T05:40:34.678Z,19.36
2017-07-17T05:41:35.950Z,19.53
2017-07-17T05:42:37.247Z,19.63
2017-07-17T05:43:38.486Z,19.87
2017-07-17T05:44:39.722Z,20.03
2017-07-17T05:45:40.972Z,20.05
2017-07-17T05:46:42.409Z,20.24
2017-07-17T05:47:43.537Z,20.46
2017-07-17T05:48:44.851Z,20.49
2017-07-17T05:49:46.080Z,20.61
2017-07-17T05:50:47.347Z,20.98
2017-07-17T05:51:48.613Z,21.71
2017-07-17T05:52:49.887Z,22.34
2017-07-17T05:53:51.139Z,22.71
2017-07-17T05:54:52.398Z,23.23
2017-07-17T05:55:53.680Z,23.71
2017-07-17T05:56:55.062Z,23.92
2017-07-17T05:57:56.342Z,24.1
2017-07-17T05:58:57.577Z,23.87
2017-07-17T05:59:58.806Z,23.77
2017-07-17T06:01:00.057Z,23.67
2017-07-17T06:02:01.314Z,23.42
2017-07-17T06:03:02.683Z,23.12
2017-07-17T06:04:03.962Z,22.82
2017-07-17T06:05:05.223Z,22.53
2017-07-17T06:06:06.565Z,22.06
2017-07-17T06:07:07.846Z,21.78
2017-07-17T06:08:09.080Z,21.48
2017-07-17T06:09:10.335Z,21.16
2017-07-17T06:10:11.724Z,20.89
2017-07-17T06:11:12.997Z,20.77
2017-07-17T06:12:14.250Z,20.68
2017-07-17T06:13:15.505Z,20.56
2017-07-17T06:14:16.818Z,20.61
2017-07-17T06:15:18.101Z,21.21
2017-07-17T06:16:19.467Z,22.17
2017-07-17T06:17:20.762Z,23.14
2017-07-17T06:18:22.022Z,23.97
2017-07-17T06:19:23.264Z,24.82
2017-07-17T06:20:24.607Z,25.91
2017-07-17T06:21:25.856Z,27.09
2017-07-17T06:22:27.105Z,28.17
2017-07-17T06:23:28.397Z,28.7
2017-07-17T06:24:29.635Z,29
2017-07-17T06:25:30.894Z,29.1
2017-07-17T06:26:32.181Z,29.04
2017-07-17T06:27:33.472Z,28.58
2017-07-17T06:28:34.750Z,28.23
2017-07-17T06:29:36.103Z,28.01
2017-07-17T06:30:37.358Z,27.8
2017-07-17T06:31:38.628Z,27.54
2017-07-17T06:32:39.907Z,27.24
2017-07-17T06:33:41.172Z,27.13
2017-07-17T06:34:42.435Z,26.8
2017-07-17T06:35:43.683Z,26.61
2017-07-17T06:36:44.963Z,26.24
2017-07-17T06:37:46.214Z,25.9
2017-07-17T06:38:47.460Z,25.46
2017-07-17T06:39:48.756Z,25.1
2017-07-17T06:40:50.001Z,24.88
2017-07-17T06:41:51.271Z,25.22
2017-07-17T06:42:52.555Z,25.56
2017-07-17T06:43:53.805Z,26.31
2017-07-17T06:44:55.045Z,27.2
2017-07-17T06:45:56.298Z,27.91
2017-07-17T06:46:57.657Z,28.13
2017-07-17T06:47:58.934Z,28.44
2017-07-17T06:49:00.194Z,28.77
2017-07-17T06:50:01.449Z,29.5
2017-07-17T06:51:02.708Z,29.97
2017-07-17T06:52:04.166Z,30.4
2017-07-17T06:53:05.452Z,30.9
2017-07-17T06:54:06.718Z,31.35
2017-07-17T06:55:07.981Z,32.15
2017-07-17T06:56:09.215Z,32.74
2017-07-17T06:57:10.478Z,33.33
2017-07-17T06:58:11.732Z,33.29
2017-07-17T06:59:13.123Z,33.23
2017-07-17T07:00:14.411Z,33.33
2017-07-17T07:01:15.649Z,33.45
2017-07-17T07:02:16.901Z,33.78
2017-07-17T07:03:18.198Z,34.19
2017-07-17T07:04:19.436Z,34.31
2017-07-17T07:05:20.707Z,34.5
2017-07-17T07:06:21.972Z,34.83
2017-07-17T07:07:23.228Z,34.8
2017-07-17T07:08:24.478Z,34.81
2017-07-17T07:09:25.736Z,35.13
2017-07-17T07:10:27.028Z,35.45
2017-07-17T07:11:28.310Z,36.19
2017-07-17T07:12:29.601Z,36.85
2017-07-17T07:13:30.891Z,37.23
2017-07-17T07:14:32.140Z,37.86
2017-07-17T07:15:33.462Z,38.07
2017-07-17T07:16:34.739Z,38.39
2017-07-17T07:17:36.041Z,39.03
2017-07-17T07:18:37.291Z,39.62
2017-07-17T07:19:38.547Z,39.42
2017-07-17T07:20:39.812Z,38.68
2017-07-17T07:21:41.076Z,37.67
2017-07-17T07:22:42.576Z,36.83
2017-07-17T07:23:43.863Z,35.88
2017-07-17T07:24:45.116Z,35.57
2017-07-17T07:25:46.359Z,35.18
2017-07-17T07:26:47.652Z,35.02
2017-07-17T07:27:48.920Z,34.88
2017-07-17T07:28:50.298Z,34.95
2017-07-17T07:29:51.516Z,35.13
2017-07-17T07:30:52.793Z,34.91
2017-07-17T07:31:54.026Z,34.2
2017-07-17T07:32:55.364Z,33.31
2017-07-17T07:33:56.623Z,32.49
2017-07-17T07:34:57.881Z,31.72
2017-07-17T07:35:59.160Z,31.18
2017-07-17T07:37:00.419Z,31.27
2017-07-17T07:38:01.694Z,31.72
2017-07-17T07:39:02.937Z,32.52
2017-07-17T07:40:04.232Z,33.31
2017-07-17T07:41:05.503Z,33.87
2017-07-17T07:42:06.824Z,34.42
2017-07-17T07:43:08.093Z,34.94
2017-07-17T07:44:09.350Z,35.35
2017-07-17T07:45:10.603Z,35.62
2017-07-17T07:46:11.872Z,35.76
2017-07-17T07:47:13.129Z,36.41
2017-07-17T07:48:14.395Z,36.48
2017-07-17T07:49:15.652Z,36.68
2017-07-17T07:50:16.933Z,36.7
2017-07-17T07:51:18.186Z,36.26
2017-07-17T07:52:19.444Z,35.93
2017-07-17T07:53:20.708Z,35.93
2017-07-17T07:54:21.970Z,35.64
2017-07-17T07:55:23.242Z,35.88
2017-07-17T07:56:24.517Z,36.04
2017-07-17T07:57:25.770Z,36.08
2017-07-17T07:58:27.119Z,36.57
2017-07-17T07:59:28.420Z,37.05
2017-07-17T08:00:29.628Z,37.26
2017-07-17T08:01:30.884Z,37.71
2017-07-17T08:02:32.129Z,37.7
2017-07-17T08:03:33.421Z,37.36
2017-07-17T08:04:34.695Z,37.01
2017-07-17T08:05:35.992Z,37.26
2017-07-17T08:06:37.296Z,37.16
2017-07-17T08:07:38.519Z,36.72
2017-07-17T08:08:39.794Z,36.46
2017-07-17T08:09:41.037Z,36.65
2017-07-17T08:10:42.297Z,37.02
2017-07-17T08:11:43.577Z,37.35
2017-07-17T08:12:44.836Z,37.48
2017-07-17T08:13:46.104Z,37.71
2017-07-17T08:14:47.353Z,37.54
2017-07-17T08:15:48.639Z,37.58
2017-07-17T08:16:49.892Z,37.66
2017-07-17T08:17:51.169Z,37.93
2017-07-17T08:18:52.437Z,37.89
2017-07-17T08:19:53.721Z,38.14
2017-07-17T08:20:55.044Z,38.26
2017-07-17T08:21:56.435Z,38.55
2017-07-17T08:22:57.734Z,38.6
2017-07-17T08:23:58.981Z,39.09
2017-07-17T08:25:00.226Z,39.2
2017-07-17T08:26:01.482Z,39.62
2017-07-17T08:27:02.755Z,39.86
2017-07-17T08:28:04.012Z,39.98
2017-07-17T08:29:05.283Z,40.02
2017-07-17T08:30:06.620Z,39.65
2017-07-17T08:31:07.881Z,38.8
2017-07-17T08:32:09.142Z,37.89
2017-07-17T08:33:10.442Z,37.61
2017-07-17T08:34:11.684Z,37.58
2017-07-17T08:35:13.027Z,37.88
2017-07-17T08:36:14.288Z,38.14
2017-07-17T08:37:15.587Z,38.57
2017-07-17T08:38:16.840Z,38.85
2017-07-17T08:39:18.135Z,38.66
2017-07-17T08:40:19.380Z,38.51
2017-07-17T08:41:20.639Z,38.58
2017-07-17T08:42:22.043Z,38.67
2017-07-17T08:43:23.252Z,38.82
2017-07-17T08:44:24.549Z,39.2
2017-07-17T08:45:25.813Z,39.05
2017-07-17T08:46:27.158Z,39.35
2017-07-17T08:47:28.441Z,39.76
2017-07-17T08:48:29.715Z,39.89
2017-07-17T08:49:31.003Z,40.5
2017-07-17T08:50:32.242Z,40.71
2017-07-17T08:51:33.617Z,41.02
2017-07-17T08:52:34.904Z,41.33
2017-07-17T08:53:36.203Z,41.73
2017-07-17T08:54:37.462Z,42.25
2017-07-17T08:55:38.813Z,42.83
2017-07-17T08:56:40.062Z,42.92
2017-07-17T08:57:41.362Z,42.85
2017-07-17T08:58:42.637Z,42.92
2017-07-17T08:59:43.882Z,42.29
2017-07-17T09:00:45.166Z,41.41
2017-07-17T09:01:46.435Z,40.8
2017-07-17T09:02:47.684Z,39.9
2017-07-17T09:03:48.951Z,39.08
2017-07-17T09:04:50.271Z,37.95
2017-07-17T09:05:51.517Z,37.8
2017-07-17T09:06:52.800Z,37.7
2017-07-17T09:07:54.072Z,37.67
2017-07-17T09:08:55.339Z,37.83
2017-07-17T09:09:56.770Z,37.8
2017-07-17T09:10:58.036Z,37.78
2017-07-17T09:11:59.334Z,37.77
2017-07-17T09:13:00.583Z,38.49
2017-07-17T09:14:01.837Z,38.71
2017-07-17T09:15:03.109Z,39.21
2017-07-17T09:16:04.364Z,39.59
2017-07-17T09:17:05.629Z,39.64
2017-07-17T09:18:06.910Z,40.08
2017-07-17T09:19:08.207Z,40.5
2017-07-17T09:20:09.448Z,40.59
2017-07-17T09:21:10.829Z,40.57
2017-07-17T09:22:12.094Z,40.56
2017-07-17T09:23:13.349Z,40.72
2017-07-17T09:24:14.642Z,41.02
2017-07-17T09:25:15.901Z,41.03
2017-07-17T09:26:17.168Z,40.88
2017-07-17T09:27:18.511Z,40.99
2017-07-17T09:28:19.785Z,41.12
2017-07-17T09:29:21.033Z,41.46
2017-07-17T09:30:22.311Z,41.75
2017-07-17T09:31:23.575Z,41.85
2017-07-17T09:32:24.907Z,42.09
2017-07-17T09:33:26.199Z,42.73
2017-07-17T09:34:27.477Z,42.85
2017-07-17T09:35:28.764Z,43.22
2017-07-17T09:36:30.082Z,43.29
2017-07-17T09:37:31.301Z,43.38
2017-07-17T09:38:32.595Z,43.58
2017-07-17T09:39:33.868Z,43.19
2017-07-17T09:40:35.133Z,43.03
2017-07-17T09:41:36.388Z,43
2017-07-17T09:42:37.659Z,42.87
2017-07-17T09:43:38.972Z,42.65
2017-07-17T09:44:40.191Z,42.31
2017-07-17T09:45:41.482Z,41.82
2017-07-17T09:46:42.734Z,42.1
2017-07-17T09:47:44.069Z,42.54
2017-07-17T09:48:45.333Z,42.5
2017-07-17T09:49:46.598Z,41.66
2017-07-17T09:50:47.869Z,42.12
2017-07-17T09:51:49.138Z,41.37
2017-07-17T09:52:50.418Z,41.1
2017-07-17T09:53:51.682Z,40.69
2017-07-17T09:54:52.945Z,40.42
2017-07-17T09:55:54.303Z,40.32
2017-07-17T09:56:55.533Z,40.32
2017-07-17T09:57:56.875Z,40.57
2017-07-17T09:58:58.193Z,40.76
2017-07-17T09:59:59.479Z,41.06
2017-07-17T10:01:00.770Z,41.56
2017-07-17T10:02:02.026Z,42.22
2017-07-17T10:03:03.330Z,42.37
2017-07-17T10:04:04.684Z,42.62
2017-07-17T10:05:06.056Z,42.81
2017-07-17T10:06:07.214Z,42.29
2017-07-17T10:07:08.514Z,42.47
2017-07-17T10:08:09.769Z,42.68
2017-07-17T10:09:11.055Z,42.75
2017-07-17T10:10:12.390Z,43.16
2017-07-17T10:11:13.652Z,43.61
2017-07-17T10:12:14.927Z,43.7
2017-07-17T10:13:16.235Z,43.82
2017-07-17T10:14:17.482Z,43.42
2017-07-17T10:15:18.873Z,43.39
2017-07-17T10:16:20.191Z,43.65
2017-07-17T10:17:21.470Z,43.41
2017-07-17T10:18:22.745Z,43.44
2017-07-17T10:19:24.000Z,43.61
2017-07-17T10:20:25.271Z,43.44
2017-07-17T10:21:26.603Z,43.7
2017-07-17T10:22:27.848Z,43.44
2017-07-17T10:23:29.156Z,43.41
2017-07-17T10:24:30.423Z,43.3
2017-07-17T10:25:31.704Z,43.39
2017-07-17T10:26:32.973Z,43.61
2017-07-17T10:27:34.340Z,44.06
2017-07-17T10:28:35.487Z,44.43
2017-07-17T10:29:36.752Z,44.2
2017-07-17T10:30:38.053Z,44.04
2017-07-17T10:31:39.331Z,43.56
2017-07-17T10:32:40.714Z,43.03
2017-07-17T10:33:42.155Z,42.68
2017-07-17T10:34:43.331Z,42.63
2017-07-17T10:35:44.563Z,42.17
2017-07-17T10:36:45.825Z,41.4
2017-07-17T10:37:47.117Z,40.81
2017-07-17T10:38:48.370Z,40.59
2017-07-17T10:39:49.672Z,40.8
2017-07-17T10:40:50.956Z,40.68
2017-07-17T10:41:52.198Z,40.98
2017-07-17T10:42:53.482Z,41.15
2017-07-17T10:43:54.863Z,41.03
2017-07-17T10:44:56.130Z,40.54
2017-07-17T10:45:57.393Z,39.7
2017-07-17T10:46:58.658Z,39.14
2017-07-17T10:47:59.909Z,38.7
2017-07-17T10:49:01.184Z,38.36
2017-07-17T10:50:02.485Z,38.12
2017-07-17T10:51:03.750Z,37.77
2017-07-17T10:52:05.035Z,37.26
2017-07-17T10:53:06.272Z,36.57
2017-07-17T10:54:07.527Z,36.15
2017-07-17T10:55:08.801Z,35.81
2017-07-17T10:56:10.083Z,35.45
2017-07-17T10:57:11.394Z,34.94
2017-07-17T10:58:12.619Z,34.09
2017-07-17T10:59:13.884Z,32.48
2017-07-17T11:00:15.135Z,32.25
2017-07-17T11:01:16.460Z,32.39
2017-07-17T11:02:17.721Z,32.13
2017-07-17T11:03:19.035Z,32.02
2017-07-17T11:04:20.269Z,31.65
2017-07-17T11:05:21.515Z,31.61
2017-07-17T11:06:22.786Z,31.46
2017-07-17T11:07:24.062Z,31.2
2017-07-17T11:08:25.361Z,30.91
2017-07-17T11:09:26.594Z,30.76
2017-07-17T11:10:27.841Z,30.3
2017-07-17T11:11:29.155Z,30.18
2017-07-17T11:12:30.369Z,30.03
2017-07-17T11:13:31.620Z,29.89
2017-07-17T11:14:32.935Z,29.65
2017-07-17T11:15:34.173Z,29.65
2017-07-17T11:16:35.441Z,29.52
2017-07-17T11:17:36.721Z,29.4
2017-07-17T11:18:37.962Z,29.33
2017-07-17T11:19:39.225Z,29
2017-07-17T11:20:40.504Z,28.78
2017-07-17T11:21:41.805Z,28.65
2017-07-17T11:22:43.102Z,28.41
2017-07-17T11:23:44.335Z,28.41
2017-07-17T11:24:45.591Z,28.26
2017-07-17T11:25:46.856Z,28.03
2017-07-17T11:26:48.118Z,27.86
2017-07-17T11:27:49.373Z,27.76
2017-07-17T11:28:50.672Z,27.73
2017-07-17T11:29:51.934Z,27.96
2017-07-17T11:30:53.190Z,27.88
2017-07-17T11:31:54.456Z,27.99
2017-07-17T11:32:55.708Z,28.09
2017-07-17T11:33:57.059Z,28.03
2017-07-17T11:34:58.318Z,27.89
2017-07-17T11:35:59.577Z,27.79
2017-07-17T11:37:00.826Z,27.74
2017-07-17T11:38:02.073Z,27.61
2017-07-17T11:39:03.349Z,27.48
2017-07-17T11:40:04.635Z,27.35
2017-07-17T11:41:05.893Z,27.2
2017-07-17T11:42:07.203Z,27.21
2017-07-17T11:43:08.459Z,27.24
2017-07-17T11:44:09.712Z,27.11
2017-07-17T11:45:11.036Z,26.96
2017-07-17T11:56:14.954Z,25.93
2017-07-17T11:57:16.183Z,25.99
2017-07-17T11:58:17.442Z,25.99
2017-07-17T11:59:18.707Z,25.82
2017-07-17T12:00:19.957Z,25.9
2017-07-17T12:01:21.247Z,25.93
2017-07-17T12:02:22.465Z,25.79
2017-07-17T12:03:23.701Z,25.8
2017-07-17T12:04:24.944Z,25.86
2017-07-17T12:05:46.558Z,25.9
2017-07-17T12:06:47.806Z,25.89
2017-07-17T12:07:49.055Z,25.86
2017-07-17T12:08:50.360Z,25.89
2017-07-17T12:09:51.604Z,26.01
2017-07-17T12:10:52.868Z,26.04
2017-07-17T12:11:54.102Z,26.06
2017-07-17T12:12:55.414Z,25.99
2017-07-17T12:13:56.672Z,25.87
2017-07-17T12:14:57.929Z,25.83
2017-07-17T12:15:59.222Z,25.74
2017-07-17T12:17:00.461Z,25.56
2017-07-17T12:18:01.742Z,25.56
2017-07-17T12:19:02.973Z,25.49
2017-07-17T12:20:04.241Z,25.5
2017-07-17T12:21:05.471Z,25.59
2017-07-17T12:22:06.732Z,25.68
2017-07-17T12:23:08.057Z,25.74
2017-07-17T12:24:09.290Z,25.72
2017-07-17T12:25:10.557Z,25.84
2017-07-17T12:26:11.789Z,25.74
2017-07-17T12:27:13.031Z,25.75
2017-07-17T12:28:14.285Z,25.69
2017-07-17T12:29:15.527Z,25.61
2017-07-17T12:30:16.769Z,25.56
2017-07-17T12:31:18.011Z,25.61
2017-07-17T12:32:19.262Z,25.57
2017-07-17T12:33:20.541Z,25.62
2017-07-17T12:34:21.772Z,25.67
2017-07-17T12:35:23.120Z,25.65
2017-07-17T12:36:24.360Z,25.61
2017-07-17T12:37:25.618Z,25.62
2017-07-17T12:38:26.866Z,25.54
2017-07-17T12:39:28.165Z,25.54
2017-07-17T12:40:29.426Z,25.37
2017-07-17T12:41:30.751Z,25.27
2017-07-17T12:42:32.006Z,25.06
2017-07-17T12:43:33.245Z,25.05
2017-07-17T12:44:34.492Z,25.06
2017-07-17T12:45:35.753Z,25.01
2017-07-17T12:46:37.015Z,24.92
2017-07-17T12:47:38.276Z,24.98
2017-07-17T12:48:39.529Z,25.01
2017-07-17T12:49:40.801Z,25.09
2017-07-17T12:50:42.040Z,25.05
2017-07-17T12:51:43.297Z,25.13
2017-07-17T12:52:44.548Z,25.02
2017-07-17T12:53:45.802Z,25.02
2017-07-17T12:54:47.058Z,25.13
2017-07-17T12:55:48.323Z,25.1
2017-07-17T12:56:49.557Z,25.02
2017-07-17T12:57:50.906Z,25.15
2017-07-17T12:58:52.178Z,25.06
2017-07-17T12:59:53.447Z,25.07
2017-07-17T13:00:54.707Z,25.05
2017-07-17T13:01:55.987Z,25.01
2017-07-17T13:02:57.226Z,25.12
2017-07-17T13:03:58.483Z,24.97
2017-07-17T13:04:59.746Z,25.01
2017-07-17T13:06:01.025Z,24.94
2017-07-17T13:07:02.356Z,24.94
2017-07-17T13:08:03.593Z,24.94
2017-07-17T13:09:04.826Z,25
2017-07-17T13:10:06.085Z,24.97
2017-07-17T13:11:07.368Z,25.01
2017-07-17T13:12:08.748Z,25
2017-07-17T13:13:10.015Z,25.02
2017-07-17T13:14:11.237Z,25.01
2017-07-17T13:15:12.490Z,24.98
2017-07-17T13:16:13.735Z,24.98
2017-07-17T13:17:14.972Z,25.09
2017-07-17T13:18:16.210Z,25.09
2017-07-17T13:19:17.464Z,25.1
2017-07-17T13:20:18.708Z,24.97
2017-07-17T13:21:19.967Z,24.98
2017-07-17T13:22:21.250Z,24.95